sensor_id;sensor_type;location;lat;lon;timestamp;P1;durP1;ratioP1;P2;durP2;ratioP2
52124;SDS011;38119;52.710;6.398;2023-03-23T00:01:24;14.02;;;7.00;;
52124;SDS011;38119;52.710;6.398;2023-03-23T00:03:52;12.52;;;7.38;;
52124;SDS011;38119;52.710;6.398;2023-03-23T00:06:22;13.20;;;7.22;;
52124;SDS011;38119;52.710;6.398;2023-03-23T00:08:49;13.75;;;6.90;;
52124;SDS011;38119;52.710;6.398;2023-03-23T00:11:21;13.93;;;7.07;;
52124;SDS011;38119;52.710;6.398;2023-03-23T00:13:49;14.85;;;6.90;;
52124;SDS011;38119;52.710;6.398;2023-03-23T00:16:16;9.70;;;6.55;;
52124;SDS011;38119;52.710;6.398;2023-03-23T00:18:48;13.02;;;6.78;;
52124;SDS011;38119;52.710;6.398;2023-03-23T00:21:19;12.40;;;6.85;;
52124;SDS011;38119;52.710;6.398;2023-03-23T00:23:50;12.40;;;6.57;;
52124;SDS011;38119;52.710;6.398;2023-03-23T00:26:16;19.10;;;7.00;;
52124;SDS011;38119;52.710;6.398;2023-03-23T00:28:42;11.52;;;6.93;;
52124;SDS011;38119;52.710;6.398;2023-03-23T00:31:08;9.52;;;6.40;;
52124;SDS011;38119;52.710;6.398;2023-03-23T00:34:01;9.75;;;5.60;;
52124;SDS011;38119;52.710;6.398;2023-03-23T00:36:29;12.05;;;6.32;;
52124;SDS011;38119;52.710;6.398;2023-03-23T00:38:56;12.52;;;6.70;;
52124;SDS011;38119;52.710;6.398;2023-03-23T00:41:24;9.52;;;5.60;;
52124;SDS011;38119;52.710;6.398;2023-03-23T00:43:55;10.95;;;5.72;;
52124;SDS011;38119;52.710;6.398;2023-03-23T00:46:22;12.10;;;5.60;;
52124;SDS011;38119;52.710;6.398;2023-03-23T00:48:49;10.07;;;5.90;;
52124;SDS011;38119;52.710;6.398;2023-03-23T00:51:19;11.30;;;5.35;;
52124;SDS011;38119;52.710;6.398;2023-03-23T00:53:45;10.50;;;5.05;;
52124;SDS011;38119;52.710;6.398;2023-03-23T00:56:12;9.07;;;4.45;;
52124;SDS011;38119;52.710;6.398;2023-03-23T00:58:40;8.18;;;4.55;;
52124;SDS011;38119;52.710;6.398;2023-03-23T01:01:06;7.85;;;4.43;;
52124;SDS011;38119;52.710;6.398;2023-03-23T01:03:32;8.82;;;4.60;;
52124;SDS011;38119;52.710;6.398;2023-03-23T01:06:09;8.27;;;4.72;;
52124;SDS011;38119;52.710;6.398;2023-03-23T01:08:38;10.00;;;5.30;;
52124;SDS011;38119;52.710;6.398;2023-03-23T01:11:10;9.13;;;4.55;;
52124;SDS011;38119;52.710;6.398;2023-03-23T01:13:40;9.98;;;4.65;;
52124;SDS011;38119;52.710;6.398;2023-03-23T01:16:09;10.32;;;4.00;;
52124;SDS011;38119;52.710;6.398;2023-03-23T01:18:35;9.10;;;3.90;;
52124;SDS011;38119;52.710;6.398;2023-03-23T01:21:09;8.60;;;3.63;;
52124;SDS011;38119;52.710;6.398;2023-03-23T01:23:37;8.57;;;4.20;;
52124;SDS011;38119;52.710;6.398;2023-03-23T01:26:10;8.85;;;3.70;;
52124;SDS011;38119;52.710;6.398;2023-03-23T01:28:41;7.45;;;3.88;;
52124;SDS011;38119;52.710;6.398;2023-03-23T01:31:09;5.57;;;3.33;;
52124;SDS011;38119;52.710;6.398;2023-03-23T01:33:37;8.48;;;4.18;;
52124;SDS011;38119;52.710;6.398;2023-03-23T01:36:06;9.40;;;4.43;;
52124;SDS011;38119;52.710;6.398;2023-03-23T01:38:43;8.70;;;3.92;;
52124;SDS011;38119;52.710;6.398;2023-03-23T01:41:14;9.88;;;4.50;;
52124;SDS011;38119;52.710;6.398;2023-03-23T01:46:19;8.40;;;4.47;;
52124;SDS011;38119;52.710;6.398;2023-03-23T01:48:47;7.05;;;4.00;;
52124;SDS011;38119;52.710;6.398;2023-03-23T01:51:15;9.02;;;4.80;;
52124;SDS011;38119;52.710;6.398;2023-03-23T01:53:47;7.82;;;4.07;;
52124;SDS011;38119;52.710;6.398;2023-03-23T01:56:20;8.00;;;4.10;;
52124;SDS011;38119;52.710;6.398;2023-03-23T01:58:50;7.18;;;4.20;;
52124;SDS011;38119;52.710;6.398;2023-03-23T02:01:17;9.98;;;3.70;;
52124;SDS011;38119;52.710;6.398;2023-03-23T02:03:47;7.95;;;3.80;;
52124;SDS011;38119;52.710;6.398;2023-03-23T02:06:17;9.60;;;3.88;;
52124;SDS011;38119;52.710;6.398;2023-03-23T02:08:43;8.10;;;3.97;;
52124;SDS011;38119;52.710;6.398;2023-03-23T02:11:16;7.80;;;3.90;;
52124;SDS011;38119;52.710;6.398;2023-03-23T02:13:44;8.88;;;4.20;;
52124;SDS011;38119;52.710;6.398;2023-03-23T02:30:27;7.70;;;3.65;;
52124;SDS011;38119;52.710;6.398;2023-03-23T02:33:15;8.02;;;3.65;;
52124;SDS011;38119;52.710;6.398;2023-03-23T02:35:45;6.13;;;3.13;;
52124;SDS011;38119;52.710;6.398;2023-03-23T02:41:31;6.28;;;3.30;;
52124;SDS011;38119;52.710;6.398;2023-03-23T02:44:01;8.18;;;3.83;;
52124;SDS011;38119;52.710;6.398;2023-03-23T02:46:29;8.85;;;3.30;;
52124;SDS011;38119;52.710;6.398;2023-03-23T02:48:56;7.43;;;3.55;;
52124;SDS011;38119;52.710;6.398;2023-03-23T02:51:24;7.10;;;3.63;;
52124;SDS011;38119;52.710;6.398;2023-03-23T02:53:51;7.90;;;4.18;;
52124;SDS011;38119;52.710;6.398;2023-03-23T02:56:20;9.15;;;3.75;;
52124;SDS011;38119;52.710;6.398;2023-03-23T02:58:48;7.93;;;3.97;;
52124;SDS011;38119;52.710;6.398;2023-03-23T03:01:44;7.88;;;3.42;;
52124;SDS011;38119;52.710;6.398;2023-03-23T03:04:11;6.70;;;3.88;;
52124;SDS011;38119;52.710;6.398;2023-03-23T03:06:44;8.98;;;4.22;;
52124;SDS011;38119;52.710;6.398;2023-03-23T03:09:19;7.28;;;4.22;;
52124;SDS011;38119;52.710;6.398;2023-03-23T03:11:51;8.55;;;3.92;;
52124;SDS011;38119;52.710;6.398;2023-03-23T03:14:26;6.80;;;3.72;;
52124;SDS011;38119;52.710;6.398;2023-03-23T03:19:42;7.35;;;4.07;;
52124;SDS011;38119;52.710;6.398;2023-03-23T03:22:12;8.70;;;3.63;;
52124;SDS011;38119;52.710;6.398;2023-03-23T03:24:39;7.95;;;4.00;;
52124;SDS011;38119;52.710;6.398;2023-03-23T03:27:12;5.53;;;3.60;;
52124;SDS011;38119;52.710;6.398;2023-03-23T03:29:41;7.78;;;4.15;;
52124;SDS011;38119;52.710;6.398;2023-03-23T03:32:15;7.43;;;4.65;;
52124;SDS011;38119;52.710;6.398;2023-03-23T03:34:45;6.57;;;3.88;;
52124;SDS011;38119;52.710;6.398;2023-03-23T03:37:12;7.35;;;4.35;;
52124;SDS011;38119;52.710;6.398;2023-03-23T03:39:38;7.63;;;4.60;;
52124;SDS011;38119;52.710;6.398;2023-03-23T03:42:04;8.02;;;4.13;;
52124;SDS011;38119;52.710;6.398;2023-03-23T03:44:31;9.63;;;3.95;;
52124;SDS011;38119;52.710;6.398;2023-03-23T03:46:57;8.63;;;4.95;;
52124;SDS011;38119;52.710;6.398;2023-03-23T03:49:23;6.18;;;4.03;;
52124;SDS011;38119;52.710;6.398;2023-03-23T03:51:48;7.45;;;3.80;;
52124;SDS011;38119;52.710;6.398;2023-03-23T03:54:16;7.10;;;4.03;;
52124;SDS011;38119;52.710;6.398;2023-03-23T03:56:42;10.63;;;4.40;;
52124;SDS011;38119;52.710;6.398;2023-03-23T03:59:08;8.82;;;4.55;;
52124;SDS011;38119;52.710;6.398;2023-03-23T04:01:34;7.68;;;4.30;;
52124;SDS011;38119;52.710;6.398;2023-03-23T04:04:03;8.57;;;4.75;;
52124;SDS011;38119;52.710;6.398;2023-03-23T04:06:32;8.30;;;4.53;;
52124;SDS011;38119;52.710;6.398;2023-03-23T04:09:02;6.97;;;4.82;;
52124;SDS011;38119;52.710;6.398;2023-03-23T04:11:30;8.90;;;4.47;;
52124;SDS011;38119;52.710;6.398;2023-03-23T04:13:56;7.75;;;4.43;;
52124;SDS011;38119;52.710;6.398;2023-03-23T04:16:28;6.63;;;4.40;;
52124;SDS011;38119;52.710;6.398;2023-03-23T04:18:54;6.68;;;3.97;;
52124;SDS011;38119;52.710;6.398;2023-03-23T04:21:21;9.75;;;4.55;;
52124;SDS011;38119;52.710;6.398;2023-03-23T04:23:46;8.73;;;5.20;;
52124;SDS011;38119;52.710;6.398;2023-03-23T04:26:12;7.93;;;4.43;;
52124;SDS011;38119;52.710;6.398;2023-03-23T04:28:38;6.68;;;4.05;;
52124;SDS011;38119;52.710;6.398;2023-03-23T04:31:04;10.82;;;4.90;;
52124;SDS011;38119;52.710;6.398;2023-03-23T04:33:30;7.35;;;4.13;;
52124;SDS011;38119;52.710;6.398;2023-03-23T04:35:59;9.90;;;5.15;;
52124;SDS011;38119;52.710;6.398;2023-03-23T04:38:26;8.32;;;4.38;;
52124;SDS011;38119;52.710;6.398;2023-03-23T04:40:52;8.02;;;4.97;;
52124;SDS011;38119;52.710;6.398;2023-03-23T04:43:19;7.53;;;4.40;;
52124;SDS011;38119;52.710;6.398;2023-03-23T04:45:51;9.15;;;4.45;;
52124;SDS011;38119;52.710;6.398;2023-03-23T04:48:24;9.15;;;4.28;;
52124;SDS011;38119;52.710;6.398;2023-03-23T04:50:54;8.23;;;4.53;;
52124;SDS011;38119;52.710;6.398;2023-03-23T04:53:22;8.75;;;4.28;;
52124;SDS011;38119;52.710;6.398;2023-03-23T04:55:48;12.65;;;5.00;;
52124;SDS011;38119;52.710;6.398;2023-03-23T04:58:15;9.80;;;4.40;;
52124;SDS011;38119;52.710;6.398;2023-03-23T05:00:42;9.80;;;5.00;;
52124;SDS011;38119;52.710;6.398;2023-03-23T05:03:08;11.60;;;5.13;;
52124;SDS011;38119;52.710;6.398;2023-03-23T05:05:35;27.33;;;5.88;;
52124;SDS011;38119;52.710;6.398;2023-03-23T05:08:01;9.13;;;4.28;;
52124;SDS011;38119;52.710;6.398;2023-03-23T05:10:27;8.20;;;2.80;;
52124;SDS011;38119;52.710;6.398;2023-03-23T05:12:54;7.50;;;3.97;;
52124;SDS011;38119;52.710;6.398;2023-03-23T05:15:20;8.50;;;4.13;;
52124;SDS011;38119;52.710;6.398;2023-03-23T05:17:47;6.97;;;3.40;;
52124;SDS011;38119;52.710;6.398;2023-03-23T05:20:18;13.30;;;4.85;;
52124;SDS011;38119;52.710;6.398;2023-03-23T05:22:46;13.88;;;4.60;;
52124;SDS011;38119;52.710;6.398;2023-03-23T05:25:14;10.55;;;4.10;;
52124;SDS011;38119;52.710;6.398;2023-03-23T05:27:40;8.82;;;3.90;;
52124;SDS011;38119;52.710;6.398;2023-03-23T05:30:11;9.68;;;4.00;;
52124;SDS011;38119;52.710;6.398;2023-03-23T05:32:40;11.10;;;4.20;;
52124;SDS011;38119;52.710;6.398;2023-03-23T05:35:06;6.18;;;2.97;;
52124;SDS011;38119;52.710;6.398;2023-03-23T05:37:33;9.05;;;3.42;;
52124;SDS011;38119;52.710;6.398;2023-03-23T05:39:59;6.53;;;2.85;;
52124;SDS011;38119;52.710;6.398;2023-03-23T05:45:03;7.63;;;2.63;;
52124;SDS011;38119;52.710;6.398;2023-03-23T05:47:28;5.95;;;2.67;;
52124;SDS011;38119;52.710;6.398;2023-03-23T05:49:55;7.25;;;2.47;;
52124;SDS011;38119;52.710;6.398;2023-03-23T05:52:22;5.63;;;2.35;;
52124;SDS011;38119;52.710;6.398;2023-03-23T05:54:49;7.65;;;2.60;;
52124;SDS011;38119;52.710;6.398;2023-03-23T05:57:16;10.55;;;2.20;;
52124;SDS011;38119;52.710;6.398;2023-03-23T05:59:42;6.35;;;2.10;;
52124;SDS011;38119;52.710;6.398;2023-03-23T06:02:09;7.50;;;2.67;;
52124;SDS011;38119;52.710;6.398;2023-03-23T06:04:35;6.93;;;2.47;;
52124;SDS011;38119;52.710;6.398;2023-03-23T06:07:03;6.25;;;2.45;;
52124;SDS011;38119;52.710;6.398;2023-03-23T06:09:29;5.63;;;2.40;;
52124;SDS011;38119;52.710;6.398;2023-03-23T06:11:55;9.15;;;2.67;;
52124;SDS011;38119;52.710;6.398;2023-03-23T06:14:25;8.90;;;2.92;;
52124;SDS011;38119;52.710;6.398;2023-03-23T06:16:51;11.48;;;2.95;;
52124;SDS011;38119;52.710;6.398;2023-03-23T06:19:18;7.47;;;2.47;;
52124;SDS011;38119;52.710;6.398;2023-03-23T06:21:43;9.38;;;3.00;;
52124;SDS011;38119;52.710;6.398;2023-03-23T06:24:09;7.35;;;2.80;;
52124;SDS011;38119;52.710;6.398;2023-03-23T06:26:36;8.60;;;3.42;;
52124;SDS011;38119;52.710;6.398;2023-03-23T06:29:04;11.25;;;3.28;;
52124;SDS011;38119;52.710;6.398;2023-03-23T06:31:41;10.18;;;3.92;;
52124;SDS011;38119;52.710;6.398;2023-03-23T06:34:10;11.20;;;3.35;;
52124;SDS011;38119;52.710;6.398;2023-03-23T06:36:36;13.18;;;3.45;;
52124;SDS011;38119;52.710;6.398;2023-03-23T06:39:03;15.88;;;3.58;;
52124;SDS011;38119;52.710;6.398;2023-03-23T06:41:30;10.95;;;3.03;;
52124;SDS011;38119;52.710;6.398;2023-03-23T06:43:56;10.13;;;3.22;;
52124;SDS011;38119;52.710;6.398;2023-03-23T06:46:22;10.35;;;3.67;;
52124;SDS011;38119;52.710;6.398;2023-03-23T06:48:48;14.05;;;3.50;;
52124;SDS011;38119;52.710;6.398;2023-03-23T06:51:14;15.18;;;4.07;;
52124;SDS011;38119;52.710;6.398;2023-03-23T06:53:41;16.38;;;4.03;;
52124;SDS011;38119;52.710;6.398;2023-03-23T06:56:06;11.52;;;3.97;;
52124;SDS011;38119;52.710;6.398;2023-03-23T06:58:32;12.70;;;3.53;;
52124;SDS011;38119;52.710;6.398;2023-03-23T07:00:58;13.60;;;3.78;;
52124;SDS011;38119;52.710;6.398;2023-03-23T07:03:24;16.60;;;4.00;;
52124;SDS011;38119;52.710;6.398;2023-03-23T07:05:51;13.70;;;4.10;;
52124;SDS011;38119;52.710;6.398;2023-03-23T07:08:16;16.63;;;3.90;;
52124;SDS011;38119;52.710;6.398;2023-03-23T07:10:42;14.10;;;3.83;;
52124;SDS011;38119;52.710;6.398;2023-03-23T07:13:08;12.07;;;4.20;;
52124;SDS011;38119;52.710;6.398;2023-03-23T07:15:34;13.27;;;3.67;;
52124;SDS011;38119;52.710;6.398;2023-03-23T07:17:59;14.52;;;3.92;;
52124;SDS011;38119;52.710;6.398;2023-03-23T07:20:25;11.38;;;3.50;;
52124;SDS011;38119;52.710;6.398;2023-03-23T07:22:53;12.68;;;3.45;;
52124;SDS011;38119;52.710;6.398;2023-03-23T07:25:18;16.15;;;3.63;;
52124;SDS011;38119;52.710;6.398;2023-03-23T07:27:45;10.40;;;3.22;;
52124;SDS011;38119;52.710;6.398;2023-03-23T07:30:11;8.63;;;3.40;;
52124;SDS011;38119;52.710;6.398;2023-03-23T07:32:38;14.43;;;3.58;;
52124;SDS011;38119;52.710;6.398;2023-03-23T07:35:04;11.73;;;3.70;;
52124;SDS011;38119;52.710;6.398;2023-03-23T07:37:29;13.05;;;3.30;;
52124;SDS011;38119;52.710;6.398;2023-03-23T07:39:57;15.27;;;3.70;;
52124;SDS011;38119;52.710;6.398;2023-03-23T07:42:23;15.52;;;3.83;;
52124;SDS011;38119;52.710;6.398;2023-03-23T07:44:49;15.10;;;3.42;;
52124;SDS011;38119;52.710;6.398;2023-03-23T07:47:14;11.82;;;3.10;;
52124;SDS011;38119;52.710;6.398;2023-03-23T07:49:40;11.75;;;3.60;;
52124;SDS011;38119;52.710;6.398;2023-03-23T07:52:06;13.32;;;3.58;;
52124;SDS011;38119;52.710;6.398;2023-03-23T07:54:31;14.52;;;3.70;;
52124;SDS011;38119;52.710;6.398;2023-03-23T07:56:57;13.48;;;4.10;;
52124;SDS011;38119;52.710;6.398;2023-03-23T07:59:22;17.42;;;4.40;;
52124;SDS011;38119;52.710;6.398;2023-03-23T08:01:48;15.77;;;4.60;;
52124;SDS011;38119;52.710;6.398;2023-03-23T08:04:14;12.32;;;3.50;;
52124;SDS011;38119;52.710;6.398;2023-03-23T08:06:40;15.30;;;4.20;;
52124;SDS011;38119;52.710;6.398;2023-03-23T08:09:06;19.67;;;4.43;;
52124;SDS011;38119;52.710;6.398;2023-03-23T08:11:36;16.50;;;4.75;;
52124;SDS011;38119;52.710;6.398;2023-03-23T08:14:03;19.63;;;4.38;;
52124;SDS011;38119;52.710;6.398;2023-03-23T08:16:30;11.25;;;3.83;;
52124;SDS011;38119;52.710;6.398;2023-03-23T08:18:56;14.60;;;4.53;;
52124;SDS011;38119;52.710;6.398;2023-03-23T08:21:22;18.77;;;5.07;;
52124;SDS011;38119;52.710;6.398;2023-03-23T08:23:47;19.70;;;4.78;;
52124;SDS011;38119;52.710;6.398;2023-03-23T08:26:13;13.80;;;4.10;;
52124;SDS011;38119;52.710;6.398;2023-03-23T08:28:40;15.23;;;4.93;;
52124;SDS011;38119;52.710;6.398;2023-03-23T08:31:07;16.05;;;4.45;;
52124;SDS011;38119;52.710;6.398;2023-03-23T08:33:35;16.70;;;4.55;;
52124;SDS011;38119;52.710;6.398;2023-03-23T08:36:01;13.95;;;4.35;;
52124;SDS011;38119;52.710;6.398;2023-03-23T08:38:28;15.38;;;4.53;;
52124;SDS011;38119;52.710;6.398;2023-03-23T08:41:02;13.35;;;4.25;;
52124;SDS011;38119;52.710;6.398;2023-03-23T08:43:29;15.80;;;4.95;;
52124;SDS011;38119;52.710;6.398;2023-03-23T08:45:59;13.52;;;4.85;;
52124;SDS011;38119;52.710;6.398;2023-03-23T08:48:25;14.15;;;4.60;;
52124;SDS011;38119;52.710;6.398;2023-03-23T08:50:51;17.55;;;4.75;;
52124;SDS011;38119;52.710;6.398;2023-03-23T08:53:17;12.57;;;4.15;;
52124;SDS011;38119;52.710;6.398;2023-03-23T08:55:46;14.38;;;4.45;;
52124;SDS011;38119;52.710;6.398;2023-03-23T08:58:12;17.98;;;4.50;;
52124;SDS011;38119;52.710;6.398;2023-03-23T09:00:38;14.57;;;4.30;;
52124;SDS011;38119;52.710;6.398;2023-03-23T09:03:04;25.13;;;5.45;;
52124;SDS011;38119;52.710;6.398;2023-03-23T09:05:30;17.88;;;5.15;;
52124;SDS011;38119;52.710;6.398;2023-03-23T09:07:56;19.67;;;5.35;;
52124;SDS011;38119;52.710;6.398;2023-03-23T09:10:26;17.75;;;4.57;;
52124;SDS011;38119;52.710;6.398;2023-03-23T09:12:55;16.73;;;4.90;;
52124;SDS011;38119;52.710;6.398;2023-03-23T09:15:21;15.27;;;4.70;;
52124;SDS011;38119;52.710;6.398;2023-03-23T09:17:49;16.80;;;4.60;;
52124;SDS011;38119;52.710;6.398;2023-03-23T09:20:17;19.20;;;5.38;;
52124;SDS011;38119;52.710;6.398;2023-03-23T09:22:48;20.10;;;4.75;;
52124;SDS011;38119;52.710;6.398;2023-03-23T09:25:19;16.73;;;4.50;;
52124;SDS011;38119;52.710;6.398;2023-03-23T09:27:50;11.77;;;4.43;;
52124;SDS011;38119;52.710;6.398;2023-03-23T09:30:18;16.65;;;4.90;;
52124;SDS011;38119;52.710;6.398;2023-03-23T09:32:45;12.32;;;4.00;;
52124;SDS011;38119;52.710;6.398;2023-03-23T09:35:13;13.27;;;4.40;;
52124;SDS011;38119;52.710;6.398;2023-03-23T09:37:41;12.77;;;3.90;;
52124;SDS011;38119;52.710;6.398;2023-03-23T09:40:16;13.68;;;3.63;;
52124;SDS011;38119;52.710;6.398;2023-03-23T09:42:51;12.27;;;3.47;;
52124;SDS011;38119;52.710;6.398;2023-03-23T09:45:26;18.27;;;4.25;;
52124;SDS011;38119;52.710;6.398;2023-03-23T09:50:54;12.45;;;3.97;;
52124;SDS011;38119;52.710;6.398;2023-03-23T09:53:31;12.30;;;3.38;;
52124;SDS011;38119;52.710;6.398;2023-03-23T09:56:03;9.88;;;3.83;;
52124;SDS011;38119;52.710;6.398;2023-03-23T10:01:31;8.52;;;3.80;;
52124;SDS011;38119;52.710;6.398;2023-03-23T10:04:19;13.45;;;3.50;;
52124;SDS011;38119;52.710;6.398;2023-03-23T10:07:09;12.70;;;3.22;;
52124;SDS011;38119;52.710;6.398;2023-03-23T10:09:37;10.88;;;3.10;;
52124;SDS011;38119;52.710;6.398;2023-03-23T10:17:20;11.13;;;3.35;;
52124;SDS011;38119;52.710;6.398;2023-03-23T10:22:43;9.73;;;3.20;;
52124;SDS011;38119;52.710;6.398;2023-03-23T10:25:19;10.10;;;2.85;;
52124;SDS011;38119;52.710;6.398;2023-03-23T10:30:41;12.45;;;3.28;;
52124;SDS011;38119;52.710;6.398;2023-03-23T10:36:05;9.65;;;2.58;;
52124;SDS011;38119;52.710;6.398;2023-03-23T10:38:43;13.00;;;3.78;;
52124;SDS011;38119;52.710;6.398;2023-03-23T10:41:22;8.77;;;2.55;;
52124;SDS011;38119;52.710;6.398;2023-03-23T10:43:47;11.90;;;2.80;;
52124;SDS011;38119;52.710;6.398;2023-03-23T10:49:02;14.27;;;3.28;;
52124;SDS011;38119;52.710;6.398;2023-03-23T10:51:38;12.43;;;3.05;;
52124;SDS011;38119;52.710;6.398;2023-03-23T10:54:06;12.05;;;2.75;;
52124;SDS011;38119;52.710;6.398;2023-03-23T10:56:37;9.75;;;2.72;;
52124;SDS011;38119;52.710;6.398;2023-03-23T10:59:11;13.13;;;3.40;;
52124;SDS011;38119;52.710;6.398;2023-03-23T11:01:42;11.32;;;3.17;;
52124;SDS011;38119;52.710;6.398;2023-03-23T11:04:13;13.43;;;3.40;;
52124;SDS011;38119;52.710;6.398;2023-03-23T11:06:43;13.35;;;3.33;;
52124;SDS011;38119;52.710;6.398;2023-03-23T11:11:54;11.60;;;3.20;;
52124;SDS011;38119;52.710;6.398;2023-03-23T11:14:27;10.50;;;3.22;;
52124;SDS011;38119;52.710;6.398;2023-03-23T11:17:03;16.23;;;3.45;;
52124;SDS011;38119;52.710;6.398;2023-03-23T11:19:32;11.93;;;3.38;;
52124;SDS011;38119;52.710;6.398;2023-03-23T11:24:33;13.80;;;2.83;;
52124;SDS011;38119;52.710;6.398;2023-03-23T11:27:06;8.13;;;2.65;;
52124;SDS011;38119;52.710;6.398;2023-03-23T11:29:33;11.73;;;2.90;;
52124;SDS011;38119;52.710;6.398;2023-03-23T11:32:05;14.93;;;3.60;;
52124;SDS011;38119;52.710;6.398;2023-03-23T11:34:42;11.55;;;2.78;;
52124;SDS011;38119;52.710;6.398;2023-03-23T11:37:14;12.38;;;3.15;;
52124;SDS011;38119;52.710;6.398;2023-03-23T11:39:55;10.85;;;2.67;;
52124;SDS011;38119;52.710;6.398;2023-03-23T11:42:22;14.32;;;3.03;;
52124;SDS011;38119;52.710;6.398;2023-03-23T11:50:48;11.05;;;2.83;;
52124;SDS011;38119;52.710;6.398;2023-03-23T11:54:01;10.32;;;2.88;;
52124;SDS011;38119;52.710;6.398;2023-03-23T11:56:19;12.90;;;2.80;;
52124;SDS011;38119;52.710;6.398;2023-03-23T11:58:48;10.00;;;3.10;;
52124;SDS011;38119;52.710;6.398;2023-03-23T12:01:26;11.63;;;3.28;;
52124;SDS011;38119;52.710;6.398;2023-03-23T12:04:25;10.13;;;2.85;;
52124;SDS011;38119;52.710;6.398;2023-03-23T12:21:25;8.60;;;2.40;;
52124;SDS011;38119;52.710;6.398;2023-03-23T12:35:07;9.82;;;2.50;;
52124;SDS011;38119;52.710;6.398;2023-03-23T12:41:19;10.30;;;2.75;;
52124;SDS011;38119;52.710;6.398;2023-03-23T12:43:51;13.00;;;3.40;;
52124;SDS011;38119;52.710;6.398;2023-03-23T12:55:24;9.68;;;2.90;;
52124;SDS011;38119;52.710;6.398;2023-03-23T12:58:20;14.38;;;2.70;;
52124;SDS011;38119;52.710;6.398;2023-03-23T13:00:58;13.57;;;2.75;;
52124;SDS011;38119;52.710;6.398;2023-03-23T13:03:50;11.48;;;2.63;;
52124;SDS011;38119;52.710;6.398;2023-03-23T13:06:27;8.25;;;2.63;;
52124;SDS011;38119;52.710;6.398;2023-03-23T13:09:46;9.95;;;2.60;;
52124;SDS011;38119;52.710;6.398;2023-03-23T13:11:49;12.77;;;2.72;;
52124;SDS011;38119;52.710;6.398;2023-03-23T13:14:24;11.85;;;2.70;;
52124;SDS011;38119;52.710;6.398;2023-03-23T13:22:47;10.75;;;2.20;;
52124;SDS011;38119;52.710;6.398;2023-03-23T13:25:19;12.90;;;2.55;;
52124;SDS011;38119;52.710;6.398;2023-03-23T13:28:03;11.68;;;2.17;;
52124;SDS011;38119;52.710;6.398;2023-03-23T13:30:29;10.85;;;2.50;;
52124;SDS011;38119;52.710;6.398;2023-03-23T13:33:05;16.58;;;3.22;;
52124;SDS011;38119;52.710;6.398;2023-03-23T13:35:37;11.13;;;2.60;;
52124;SDS011;38119;52.710;6.398;2023-03-23T13:38:19;11.85;;;2.80;;
52124;SDS011;38119;52.710;6.398;2023-03-23T13:40:49;11.63;;;3.42;;
52124;SDS011;38119;52.710;6.398;2023-03-23T13:43:33;12.15;;;3.00;;
52124;SDS011;38119;52.710;6.398;2023-03-23T13:46:07;14.98;;;3.20;;
52124;SDS011;38119;52.710;6.398;2023-03-23T13:48:39;11.13;;;2.90;;
52124;SDS011;38119;52.710;6.398;2023-03-23T13:59:35;12.60;;;3.17;;
52124;SDS011;38119;52.710;6.398;2023-03-23T14:02:27;12.77;;;2.50;;
52124;SDS011;38119;52.710;6.398;2023-03-23T14:04:56;11.88;;;3.05;;
52124;SDS011;38119;52.710;6.398;2023-03-23T14:07:22;12.75;;;2.90;;
52124;SDS011;38119;52.710;6.398;2023-03-23T14:09:49;11.85;;;2.50;;
52124;SDS011;38119;52.710;6.398;2023-03-23T14:12:19;8.05;;;1.92;;
52124;SDS011;38119;52.710;6.398;2023-03-23T14:17:22;7.90;;;2.03;;
52124;SDS011;38119;52.710;6.398;2023-03-23T14:19:55;6.90;;;2.38;;
52124;SDS011;38119;52.710;6.398;2023-03-23T14:22:27;12.30;;;2.88;;
52124;SDS011;38119;52.710;6.398;2023-03-23T14:25:01;10.18;;;2.80;;
52124;SDS011;38119;52.710;6.398;2023-03-23T14:27:38;11.25;;;2.85;;
52124;SDS011;38119;52.710;6.398;2023-03-23T14:30:08;8.68;;;3.03;;
52124;SDS011;38119;52.710;6.398;2023-03-23T14:32:38;8.27;;;2.72;;
52124;SDS011;38119;52.710;6.398;2023-03-23T14:35:07;13.75;;;2.97;;
52124;SDS011;38119;52.710;6.398;2023-03-23T14:37:39;11.52;;;2.42;;
52124;SDS011;38119;52.710;6.398;2023-03-23T14:40:05;8.52;;;2.63;;
52124;SDS011;38119;52.710;6.398;2023-03-23T14:42:36;12.25;;;2.70;;
52124;SDS011;38119;52.710;6.398;2023-03-23T14:45:03;11.30;;;3.00;;
52124;SDS011;38119;52.710;6.398;2023-03-23T14:47:34;13.45;;;3.10;;
52124;SDS011;38119;52.710;6.398;2023-03-23T14:50:05;10.45;;;3.38;;
52124;SDS011;38119;52.710;6.398;2023-03-23T14:52:47;10.57;;;2.78;;
52124;SDS011;38119;52.710;6.398;2023-03-23T14:55:14;11.88;;;3.30;;
52124;SDS011;38119;52.710;6.398;2023-03-23T14:57:44;11.57;;;3.40;;
52124;SDS011;38119;52.710;6.398;2023-03-23T15:00:25;11.30;;;2.90;;
52124;SDS011;38119;52.710;6.398;2023-03-23T15:02:57;10.75;;;2.72;;
52124;SDS011;38119;52.710;6.398;2023-03-23T15:05:27;11.93;;;3.15;;
52124;SDS011;38119;52.710;6.398;2023-03-23T15:08:00;11.63;;;3.10;;
52124;SDS011;38119;52.710;6.398;2023-03-23T15:10:30;10.13;;;3.30;;
52124;SDS011;38119;52.710;6.398;2023-03-23T15:12:56;9.48;;;3.47;;
52124;SDS011;38119;52.710;6.398;2023-03-23T15:15:32;12.88;;;3.42;;
52124;SDS011;38119;52.710;6.398;2023-03-23T15:18:00;8.13;;;2.80;;
52124;SDS011;38119;52.710;6.398;2023-03-23T15:20:48;11.68;;;3.20;;
52124;SDS011;38119;52.710;6.398;2023-03-23T15:23:17;9.50;;;2.67;;
52124;SDS011;38119;52.710;6.398;2023-03-23T15:25:51;11.65;;;2.78;;
52124;SDS011;38119;52.710;6.398;2023-03-23T15:28:19;11.30;;;2.83;;
52124;SDS011;38119;52.710;6.398;2023-03-23T15:31:05;9.15;;;2.85;;
52124;SDS011;38119;52.710;6.398;2023-03-23T15:33:34;9.45;;;2.88;;
52124;SDS011;38119;52.710;6.398;2023-03-23T15:36:05;11.70;;;3.08;;
52124;SDS011;38119;52.710;6.398;2023-03-23T15:38:42;10.05;;;2.85;;
52124;SDS011;38119;52.710;6.398;2023-03-23T15:41:20;12.05;;;3.00;;
52124;SDS011;38119;52.710;6.398;2023-03-23T15:43:54;10.77;;;2.40;;
52124;SDS011;38119;52.710;6.398;2023-03-23T15:46:24;11.23;;;3.08;;
52124;SDS011;38119;52.710;6.398;2023-03-23T15:49:10;11.65;;;3.28;;
52124;SDS011;38119;52.710;6.398;2023-03-23T15:51:38;13.00;;;3.30;;
52124;SDS011;38119;52.710;6.398;2023-03-23T15:54:07;13.60;;;3.60;;
52124;SDS011;38119;52.710;6.398;2023-03-23T15:56:38;12.98;;;3.22;;
52124;SDS011;38119;52.710;6.398;2023-03-23T15:59:03;13.13;;;3.40;;
52124;SDS011;38119;52.710;6.398;2023-03-23T16:01:29;10.23;;;2.97;;
52124;SDS011;38119;52.710;6.398;2023-03-23T16:03:56;12.45;;;3.30;;
52124;SDS011;38119;52.710;6.398;2023-03-23T16:06:32;12.77;;;3.03;;
52124;SDS011;38119;52.710;6.398;2023-03-23T16:08:59;15.50;;;3.22;;
52124;SDS011;38119;52.710;6.398;2023-03-23T16:11:26;11.13;;;3.55;;
52124;SDS011;38119;52.710;6.398;2023-03-23T16:13:53;9.15;;;2.75;;
52124;SDS011;38119;52.710;6.398;2023-03-23T16:18:51;10.27;;;2.60;;
52124;SDS011;38119;52.710;6.398;2023-03-23T16:21:17;13.65;;;2.97;;
52124;SDS011;38119;52.710;6.398;2023-03-23T16:23:42;12.30;;;2.40;;
52124;SDS011;38119;52.710;6.398;2023-03-23T16:26:10;10.18;;;2.88;;
52124;SDS011;38119;52.710;6.398;2023-03-23T16:28:36;10.30;;;2.88;;
52124;SDS011;38119;52.710;6.398;2023-03-23T16:31:02;8.00;;;2.53;;
52124;SDS011;38119;52.710;6.398;2023-03-23T16:33:28;8.50;;;2.55;;
52124;SDS011;38119;52.710;6.398;2023-03-23T16:35:54;10.35;;;2.40;;
52124;SDS011;38119;52.710;6.398;2023-03-23T16:38:21;8.50;;;1.92;;
52124;SDS011;38119;52.710;6.398;2023-03-23T16:40:46;7.80;;;2.33;;
52124;SDS011;38119;52.710;6.398;2023-03-23T16:43:12;7.07;;;2.30;;
52124;SDS011;38119;52.710;6.398;2023-03-23T16:45:39;8.05;;;2.50;;
52124;SDS011;38119;52.710;6.398;2023-03-23T16:48:06;6.63;;;2.10;;
52124;SDS011;38119;52.710;6.398;2023-03-23T16:50:33;4.32;;;1.45;;
52124;SDS011;38119;52.710;6.398;2023-03-23T16:53:00;4.85;;;1.52;;